sensor_id;sensor_type;location;lat;lon;timestamp;P1;durP1;ratioP1;P2;durP2;ratioP2
8317;SDS011;4196;48.926;8.964;2023-02-28T00:01:56;3.10;;;2.47;;
8317;SDS011;4196;48.926;8.964;2023-02-28T00:04:42;2.57;;;2.03;;
8317;SDS011;4196;48.926;8.964;2023-02-28T00:07:29;3.07;;;2.33;;
8317;SDS011;4196;48.926;8.964;2023-02-28T00:10:21;3.13;;;2.07;;
8317;SDS011;4196;48.926;8.964;2023-02-28T00:13:09;4.43;;;2.47;;
8317;SDS011;4196;48.926;8.964;2023-02-28T00:16:01;4.87;;;2.97;;
8317;SDS011;4196;48.926;8.964;2023-02-28T00:18:51;3.13;;;2.83;;
8317;SDS011;4196;48.926;8.964;2023-02-28T00:21:38;5.47;;;2.40;;
8317;SDS011;4196;48.926;8.964;2023-02-28T00:24:26;3.03;;;2.30;;
8317;SDS011;4196;48.926;8.964;2023-02-28T00:27:13;4.90;;;2.07;;
8317;SDS011;4196;48.926;8.964;2023-02-28T00:30:00;3.87;;;2.40;;
8317;SDS011;4196;48.926;8.964;2023-02-28T00:32:49;3.20;;;2.37;;
8317;SDS011;4196;48.926;8.964;2023-02-28T00:35:35;3.37;;;2.70;;
8317;SDS011;4196;48.926;8.964;2023-02-28T00:38:22;3.53;;;3.23;;
8317;SDS011;4196;48.926;8.964;2023-02-28T00:41:08;3.30;;;2.77;;
8317;SDS011;4196;48.926;8.964;2023-02-28T00:43:55;2.53;;;2.20;;
8317;SDS011;4196;48.926;8.964;2023-02-28T00:46:41;2.30;;;1.97;;
8317;SDS011;4196;48.926;8.964;2023-02-28T00:49:28;3.03;;;2.40;;
8317;SDS011;4196;48.926;8.964;2023-02-28T00:52:14;6.00;;;2.50;;
8317;SDS011;4196;48.926;8.964;2023-02-28T00:55:00;10.33;;;2.80;;
8317;SDS011;4196;48.926;8.964;2023-02-28T00:57:47;5.80;;;2.40;;
8317;SDS011;4196;48.926;8.964;2023-02-28T01:00:33;4.33;;;2.80;;
8317;SDS011;4196;48.926;8.964;2023-02-28T01:03:20;2.43;;;2.20;;
8317;SDS011;4196;48.926;8.964;2023-02-28T01:06:08;4.97;;;2.73;;
8317;SDS011;4196;48.926;8.964;2023-02-28T01:08:54;3.70;;;2.10;;
8317;SDS011;4196;48.926;8.964;2023-02-28T01:11:41;5.47;;;3.03;;
8317;SDS011;4196;48.926;8.964;2023-02-28T01:14:29;3.90;;;2.70;;
8317;SDS011;4196;48.926;8.964;2023-02-28T01:17:16;3.40;;;2.13;;
8317;SDS011;4196;48.926;8.964;2023-02-28T01:20:02;3.13;;;2.30;;
8317;SDS011;4196;48.926;8.964;2023-02-28T01:22:49;2.97;;;2.20;;
8317;SDS011;4196;48.926;8.964;2023-02-28T01:25:35;3.77;;;2.40;;
8317;SDS011;4196;48.926;8.964;2023-02-28T01:28:23;3.87;;;2.60;;
8317;SDS011;4196;48.926;8.964;2023-02-28T01:31:10;4.40;;;2.17;;
8317;SDS011;4196;48.926;8.964;2023-02-28T01:33:57;3.93;;;2.60;;
8317;SDS011;4196;48.926;8.964;2023-02-28T01:36:47;3.07;;;2.80;;
8317;SDS011;4196;48.926;8.964;2023-02-28T01:39:33;4.23;;;2.97;;
8317;SDS011;4196;48.926;8.964;2023-02-28T01:42:19;4.80;;;3.03;;
8317;SDS011;4196;48.926;8.964;2023-02-28T01:48:08;6.10;;;2.57;;
8317;SDS011;4196;48.926;8.964;2023-02-28T01:50:56;3.27;;;2.30;;
8317;SDS011;4196;48.926;8.964;2023-02-28T01:53:49;3.13;;;2.30;;
8317;SDS011;4196;48.926;8.964;2023-02-28T01:56:41;3.27;;;2.47;;
8317;SDS011;4196;48.926;8.964;2023-02-28T01:59:35;3.10;;;2.40;;
8317;SDS011;4196;48.926;8.964;2023-02-28T02:02:37;3.43;;;2.13;;
8317;SDS011;4196;48.926;8.964;2023-02-28T02:05:25;2.73;;;2.43;;
8317;SDS011;4196;48.926;8.964;2023-02-28T02:08:16;3.00;;;2.40;;
8317;SDS011;4196;48.926;8.964;2023-02-28T02:11:05;3.63;;;2.73;;
8317;SDS011;4196;48.926;8.964;2023-02-28T02:14:03;5.60;;;3.53;;
8317;SDS011;4196;48.926;8.964;2023-02-28T02:17:18;5.23;;;3.23;;
8317;SDS011;4196;48.926;8.964;2023-02-28T02:36:32;3.00;;;2.70;;
8317;SDS011;4196;48.926;8.964;2023-02-28T02:39:25;5.50;;;3.20;;
8317;SDS011;4196;48.926;8.964;2023-02-28T02:42:16;4.30;;;2.63;;
8317;SDS011;4196;48.926;8.964;2023-02-28T02:45:23;3.67;;;2.53;;
8317;SDS011;4196;48.926;8.964;2023-02-28T02:48:16;3.40;;;2.20;;
8317;SDS011;4196;48.926;8.964;2023-02-28T02:51:07;3.53;;;2.77;;
8317;SDS011;4196;48.926;8.964;2023-02-28T02:54:05;5.60;;;2.97;;
8317;SDS011;4196;48.926;8.964;2023-02-28T02:56:59;5.90;;;3.17;;
8317;SDS011;4196;48.926;8.964;2023-02-28T02:59:49;4.90;;;2.83;;
8317;SDS011;4196;48.926;8.964;2023-02-28T03:02:40;4.97;;;3.23;;
8317;SDS011;4196;48.926;8.964;2023-02-28T03:05:31;3.93;;;2.80;;
8317;SDS011;4196;48.926;8.964;2023-02-28T03:08:21;3.20;;;2.90;;
8317;SDS011;4196;48.926;8.964;2023-02-28T03:11:12;3.67;;;3.00;;
8317;SDS011;4196;48.926;8.964;2023-02-28T03:14:09;4.97;;;2.80;;
8317;SDS011;4196;48.926;8.964;2023-02-28T03:17:25;3.23;;;2.70;;
8317;SDS011;4196;48.926;8.964;2023-02-28T03:23:31;7.67;;;3.53;;
8317;SDS011;4196;48.926;8.964;2023-02-28T03:26:40;4.93;;;3.33;;
8317;SDS011;4196;48.926;8.964;2023-02-28T03:29:35;5.63;;;3.07;;
8317;SDS011;4196;48.926;8.964;2023-02-28T03:32:29;5.67;;;3.40;;
8317;SDS011;4196;48.926;8.964;2023-02-28T03:35:32;4.07;;;2.57;;
8317;SDS011;4196;48.926;8.964;2023-02-28T03:41:23;4.83;;;3.00;;
8317;SDS011;4196;48.926;8.964;2023-02-28T03:44:26;5.10;;;3.30;;
8317;SDS011;4196;48.926;8.964;2023-02-28T03:47:25;4.37;;;3.47;;
8317;SDS011;4196;48.926;8.964;2023-02-28T03:50:22;4.87;;;3.30;;
8317;SDS011;4196;48.926;8.964;2023-02-28T03:53:14;3.43;;;2.97;;
8317;SDS011;4196;48.926;8.964;2023-02-28T03:56:22;5.87;;;2.73;;
8317;SDS011;4196;48.926;8.964;2023-02-28T03:59:14;6.67;;;3.63;;
8317;SDS011;4196;48.926;8.964;2023-02-28T04:02:04;4.37;;;2.90;;
8317;SDS011;4196;48.926;8.964;2023-02-28T04:04:51;5.40;;;3.90;;
8317;SDS011;4196;48.926;8.964;2023-02-28T04:07:37;3.10;;;2.57;;
8317;SDS011;4196;48.926;8.964;2023-02-28T04:10:24;4.13;;;2.97;;
8317;SDS011;4196;48.926;8.964;2023-02-28T04:13:10;6.80;;;3.50;;
8317;SDS011;4196;48.926;8.964;2023-02-28T04:15:56;4.43;;;2.77;;
8317;SDS011;4196;48.926;8.964;2023-02-28T04:18:43;5.03;;;2.97;;
8317;SDS011;4196;48.926;8.964;2023-02-28T04:21:29;4.57;;;2.90;;
8317;SDS011;4196;48.926;8.964;2023-02-28T04:24:36;4.03;;;2.90;;
8317;SDS011;4196;48.926;8.964;2023-02-28T04:27:22;5.00;;;3.23;;
8317;SDS011;4196;48.926;8.964;2023-02-28T04:30:09;5.83;;;3.10;;
8317;SDS011;4196;48.926;8.964;2023-02-28T04:32:56;5.23;;;3.33;;
8317;SDS011;4196;48.926;8.964;2023-02-28T04:35:43;4.70;;;2.90;;
8317;SDS011;4196;48.926;8.964;2023-02-28T04:38:30;7.03;;;5.07;;
8317;SDS011;4196;48.926;8.964;2023-02-28T04:41:19;10.27;;;2.80;;
8317;SDS011;4196;48.926;8.964;2023-02-28T04:44:05;7.23;;;3.30;;
8317;SDS011;4196;48.926;8.964;2023-02-28T04:46:51;5.37;;;3.33;;
8317;SDS011;4196;48.926;8.964;2023-02-28T04:49:38;5.53;;;3.83;;
8317;SDS011;4196;48.926;8.964;2023-02-28T04:52:24;6.87;;;3.30;;
8317;SDS011;4196;48.926;8.964;2023-02-28T04:55:13;3.87;;;2.93;;
8317;SDS011;4196;48.926;8.964;2023-02-28T04:57:59;5.10;;;2.97;;
8317;SDS011;4196;48.926;8.964;2023-02-28T05:00:46;4.87;;;3.10;;
8317;SDS011;4196;48.926;8.964;2023-02-28T05:03:32;7.60;;;4.37;;
8317;SDS011;4196;48.926;8.964;2023-02-28T05:06:19;5.20;;;3.00;;
8317;SDS011;4196;48.926;8.964;2023-02-28T05:09:06;7.30;;;3.97;;
8317;SDS011;4196;48.926;8.964;2023-02-28T05:11:52;6.10;;;4.07;;
8317;SDS011;4196;48.926;8.964;2023-02-28T05:14:39;5.73;;;3.00;;
8317;SDS011;4196;48.926;8.964;2023-02-28T05:17:25;5.37;;;3.50;;
8317;SDS011;4196;48.926;8.964;2023-02-28T05:20:11;4.63;;;3.40;;
8317;SDS011;4196;48.926;8.964;2023-02-28T05:23:01;4.73;;;3.20;;
8317;SDS011;4196;48.926;8.964;2023-02-28T05:25:48;4.53;;;3.07;;
8317;SDS011;4196;48.926;8.964;2023-02-28T05:28:34;3.63;;;2.93;;
8317;SDS011;4196;48.926;8.964;2023-02-28T05:31:21;5.63;;;3.33;;
8317;SDS011;4196;48.926;8.964;2023-02-28T05:34:08;5.90;;;3.50;;
8317;SDS011;4196;48.926;8.964;2023-02-28T05:36:56;6.20;;;3.87;;
8317;SDS011;4196;48.926;8.964;2023-02-28T05:39:43;5.43;;;3.87;;
8317;SDS011;4196;48.926;8.964;2023-02-28T05:42:29;4.07;;;3.00;;
8317;SDS011;4196;48.926;8.964;2023-02-28T05:45:16;4.83;;;3.30;;
8317;SDS011;4196;48.926;8.964;2023-02-28T05:48:03;7.43;;;3.80;;
8317;SDS011;4196;48.926;8.964;2023-02-28T05:50:49;6.23;;;4.07;;
8317;SDS011;4196;48.926;8.964;2023-02-28T05:53:35;4.77;;;3.17;;
8317;SDS011;4196;48.926;8.964;2023-02-28T05:56:22;4.33;;;2.90;;
8317;SDS011;4196;48.926;8.964;2023-02-28T05:59:08;5.40;;;3.40;;
8317;SDS011;4196;48.926;8.964;2023-02-28T06:01:55;9.53;;;3.47;;
8317;SDS011;4196;48.926;8.964;2023-02-28T06:04:42;4.00;;;3.10;;
8317;SDS011;4196;48.926;8.964;2023-02-28T06:07:29;5.13;;;3.43;;
8317;SDS011;4196;48.926;8.964;2023-02-28T06:10:16;7.40;;;3.57;;
8317;SDS011;4196;48.926;8.964;2023-02-28T06:13:03;7.07;;;3.03;;
8317;SDS011;4196;48.926;8.964;2023-02-28T06:15:50;8.37;;;5.20;;
8317;SDS011;4196;48.926;8.964;2023-02-28T06:18:36;7.30;;;3.57;;
8317;SDS011;4196;48.926;8.964;2023-02-28T06:21:23;4.77;;;2.70;;
8317;SDS011;4196;48.926;8.964;2023-02-28T06:24:10;5.47;;;3.50;;
8317;SDS011;4196;48.926;8.964;2023-02-28T06:26:57;4.13;;;3.13;;
8317;SDS011;4196;48.926;8.964;2023-02-28T06:29:53;6.67;;;3.37;;
8317;SDS011;4196;48.926;8.964;2023-02-28T06:32:40;6.63;;;3.17;;
8317;SDS011;4196;48.926;8.964;2023-02-28T06:35:26;5.03;;;3.40;;
8317;SDS011;4196;48.926;8.964;2023-02-28T06:38:13;4.57;;;3.03;;
8317;SDS011;4196;48.926;8.964;2023-02-28T06:40:59;5.93;;;3.30;;
8317;SDS011;4196;48.926;8.964;2023-02-28T06:43:47;5.40;;;3.27;;
8317;SDS011;4196;48.926;8.964;2023-02-28T06:46:33;5.37;;;2.80;;
8317;SDS011;4196;48.926;8.964;2023-02-28T06:49:19;4.87;;;3.03;;
8317;SDS011;4196;48.926;8.964;2023-02-28T06:52:06;5.80;;;3.50;;
8317;SDS011;4196;48.926;8.964;2023-02-28T06:54:53;7.30;;;4.03;;
8317;SDS011;4196;48.926;8.964;2023-02-28T06:57:45;4.90;;;3.00;;
8317;SDS011;4196;48.926;8.964;2023-02-28T07:00:31;4.90;;;3.10;;
8317;SDS011;4196;48.926;8.964;2023-02-28T07:03:19;6.80;;;3.60;;
8317;SDS011;4196;48.926;8.964;2023-02-28T07:06:05;6.23;;;3.83;;
8317;SDS011;4196;48.926;8.964;2023-02-28T07:08:53;8.70;;;4.40;;
8317;SDS011;4196;48.926;8.964;2023-02-28T07:11:40;5.57;;;3.40;;
8317;SDS011;4196;48.926;8.964;2023-02-28T07:14:28;5.53;;;3.43;;
8317;SDS011;4196;48.926;8.964;2023-02-28T07:17:15;6.27;;;3.70;;
8317;SDS011;4196;48.926;8.964;2023-02-28T07:20:01;4.63;;;3.30;;
8317;SDS011;4196;48.926;8.964;2023-02-28T07:22:50;6.93;;;3.90;;
8317;SDS011;4196;48.926;8.964;2023-02-28T07:25:42;5.73;;;3.87;;
8317;SDS011;4196;48.926;8.964;2023-02-28T07:28:28;5.93;;;3.20;;
8317;SDS011;4196;48.926;8.964;2023-02-28T07:31:15;7.10;;;3.80;;
8317;SDS011;4196;48.926;8.964;2023-02-28T07:34:02;5.13;;;4.27;;
8317;SDS011;4196;48.926;8.964;2023-02-28T07:36:49;8.07;;;3.80;;
8317;SDS011;4196;48.926;8.964;2023-02-28T07:39:39;4.67;;;3.17;;
8317;SDS011;4196;48.926;8.964;2023-02-28T07:42:28;6.33;;;3.33;;
8317;SDS011;4196;48.926;8.964;2023-02-28T07:45:14;6.33;;;3.70;;
8317;SDS011;4196;48.926;8.964;2023-02-28T07:48:01;6.07;;;3.80;;
8317;SDS011;4196;48.926;8.964;2023-02-28T07:50:54;7.03;;;3.83;;
8317;SDS011;4196;48.926;8.964;2023-02-28T07:53:41;5.57;;;3.50;;
8317;SDS011;4196;48.926;8.964;2023-02-28T07:56:28;8.77;;;3.83;;
8317;SDS011;4196;48.926;8.964;2023-02-28T07:59:15;6.13;;;3.97;;
8317;SDS011;4196;48.926;8.964;2023-02-28T08:02:01;5.00;;;3.40;;
8317;SDS011;4196;48.926;8.964;2023-02-28T08:04:48;7.87;;;4.00;;
8317;SDS011;4196;48.926;8.964;2023-02-28T08:07:35;14.20;;;5.77;;
8317;SDS011;4196;48.926;8.964;2023-02-28T08:10:21;9.47;;;3.90;;
8317;SDS011;4196;48.926;8.964;2023-02-28T08:13:07;6.93;;;3.80;;
8317;SDS011;4196;48.926;8.964;2023-02-28T08:15:54;9.63;;;4.00;;
8317;SDS011;4196;48.926;8.964;2023-02-28T08:18:41;8.40;;;5.20;;
8317;SDS011;4196;48.926;8.964;2023-02-28T08:21:27;9.33;;;4.50;;
8317;SDS011;4196;48.926;8.964;2023-02-28T08:24:14;6.37;;;4.23;;
8317;SDS011;4196;48.926;8.964;2023-02-28T08:27:00;6.97;;;4.17;;
8317;SDS011;4196;48.926;8.964;2023-02-28T08:29:46;9.63;;;4.97;;
8317;SDS011;4196;48.926;8.964;2023-02-28T08:32:33;7.67;;;4.20;;
8317;SDS011;4196;48.926;8.964;2023-02-28T08:35:20;8.70;;;4.73;;
8317;SDS011;4196;48.926;8.964;2023-02-28T08:38:06;10.80;;;5.13;;
8317;SDS011;4196;48.926;8.964;2023-02-28T08:41:02;8.23;;;4.43;;
8317;SDS011;4196;48.926;8.964;2023-02-28T08:43:53;7.87;;;4.83;;
8317;SDS011;4196;48.926;8.964;2023-02-28T08:46:39;5.03;;;4.17;;
8317;SDS011;4196;48.926;8.964;2023-02-28T08:49:26;11.47;;;4.60;;
8317;SDS011;4196;48.926;8.964;2023-02-28T08:52:12;6.63;;;4.20;;
8317;SDS011;4196;48.926;8.964;2023-02-28T08:54:58;7.40;;;3.93;;
8317;SDS011;4196;48.926;8.964;2023-02-28T08:57:45;7.57;;;4.47;;
8317;SDS011;4196;48.926;8.964;2023-02-28T09:00:31;6.20;;;3.70;;
8317;SDS011;4196;48.926;8.964;2023-02-28T09:03:17;8.40;;;5.00;;
8317;SDS011;4196;48.926;8.964;2023-02-28T09:06:06;9.50;;;4.97;;
8317;SDS011;4196;48.926;8.964;2023-02-28T09:08:52;6.73;;;4.27;;
8317;SDS011;4196;48.926;8.964;2023-02-28T09:11:38;7.47;;;4.90;;
8317;SDS011;4196;48.926;8.964;2023-02-28T09:14:25;6.83;;;4.43;;
8317;SDS011;4196;48.926;8.964;2023-02-28T09:17:11;10.87;;;4.93;;
8317;SDS011;4196;48.926;8.964;2023-02-28T09:19:57;8.13;;;4.83;;
8317;SDS011;4196;48.926;8.964;2023-02-28T09:22:44;10.63;;;4.40;;
8317;SDS011;4196;48.926;8.964;2023-02-28T09:25:30;6.93;;;4.10;;
8317;SDS011;4196;48.926;8.964;2023-02-28T09:28:17;7.43;;;4.23;;
8317;SDS011;4196;48.926;8.964;2023-02-28T09:31:03;5.93;;;4.40;;
8317;SDS011;4196;48.926;8.964;2023-02-28T09:33:51;9.67;;;5.50;;
8317;SDS011;4196;48.926;8.964;2023-02-28T09:36:39;6.17;;;4.40;;
8317;SDS011;4196;48.926;8.964;2023-02-28T09:39:31;8.53;;;4.67;;
8317;SDS011;4196;48.926;8.964;2023-02-28T09:42:21;7.83;;;4.77;;
8317;SDS011;4196;48.926;8.964;2023-02-28T09:48:35;5.73;;;4.30;;
8317;SDS011;4196;48.926;8.964;2023-02-28T09:54:24;7.93;;;4.83;;
8317;SDS011;4196;48.926;8.964;2023-02-28T09:57:19;7.07;;;4.77;;
8317;SDS011;4196;48.926;8.964;2023-02-28T10:06:17;7.57;;;4.23;;
8317;SDS011;4196;48.926;8.964;2023-02-28T10:09:11;6.17;;;4.13;;
8317;SDS011;4196;48.926;8.964;2023-02-28T10:12:04;6.23;;;4.30;;
8317;SDS011;4196;48.926;8.964;2023-02-28T10:14:52;10.53;;;5.23;;
8317;SDS011;4196;48.926;8.964;2023-02-28T10:17:41;8.53;;;5.27;;
8317;SDS011;4196;48.926;8.964;2023-02-28T10:20:45;7.83;;;4.73;;
8317;SDS011;4196;48.926;8.964;2023-02-28T10:23:36;8.67;;;5.07;;
8317;SDS011;4196;48.926;8.964;2023-02-28T10:26:25;9.83;;;5.57;;
8317;SDS011;4196;48.926;8.964;2023-02-28T10:29:15;9.47;;;4.80;;
8317;SDS011;4196;48.926;8.964;2023-02-28T10:32:02;6.70;;;4.47;;
8317;SDS011;4196;48.926;8.964;2023-02-28T10:34:55;8.67;;;4.63;;
8317;SDS011;4196;48.926;8.964;2023-02-28T10:37:46;10.73;;;5.20;;
8317;SDS011;4196;48.926;8.964;2023-02-28T10:40:35;8.87;;;4.23;;
8317;SDS011;4196;48.926;8.964;2023-02-28T10:43:22;6.53;;;4.77;;
8317;SDS011;4196;48.926;8.964;2023-02-28T10:46:11;8.47;;;4.97;;
8317;SDS011;4196;48.926;8.964;2023-02-28T10:49:05;8.53;;;4.83;;
8317;SDS011;4196;48.926;8.964;2023-02-28T10:51:59;11.60;;;5.43;;
8317;SDS011;4196;48.926;8.964;2023-02-28T10:54:46;6.37;;;4.63;;
8317;SDS011;4196;48.926;8.964;2023-02-28T10:57:33;8.97;;;4.97;;
8317;SDS011;4196;48.926;8.964;2023-02-28T11:00:21;7.20;;;4.97;;
8317;SDS011;4196;48.926;8.964;2023-02-28T11:03:23;10.03;;;5.90;;
8317;SDS011;4196;48.926;8.964;2023-02-28T11:06:20;7.83;;;5.07;;
8317;SDS011;4196;48.926;8.964;2023-02-28T11:09:45;9.43;;;5.40;;
8317;SDS011;4196;48.926;8.964;2023-02-28T11:12:37;7.97;;;4.70;;
8317;SDS011;4196;48.926;8.964;2023-02-28T11:15:37;11.43;;;5.60;;
8317;SDS011;4196;48.926;8.964;2023-02-28T11:18:28;8.10;;;5.10;;
8317;SDS011;4196;48.926;8.964;2023-02-28T11:21:27;7.60;;;5.03;;
8317;SDS011;4196;48.926;8.964;2023-02-28T11:24:29;10.17;;;5.77;;
8317;SDS011;4196;48.926;8.964;2023-02-28T11:30:24;10.47;;;5.30;;
8317;SDS011;4196;48.926;8.964;2023-02-28T11:33:28;7.63;;;4.90;;
8317;SDS011;4196;48.926;8.964;2023-02-28T11:36:24;9.00;;;4.40;;
8317;SDS011;4196;48.926;8.964;2023-02-28T11:39:13;8.37;;;4.77;;
8317;SDS011;4196;48.926;8.964;2023-02-28T11:48:08;6.80;;;4.77;;
8317;SDS011;4196;48.926;8.964;2023-02-28T11:54:21;8.23;;;5.17;;
8317;SDS011;4196;48.926;8.964;2023-02-28T12:00:12;12.33;;;5.67;;
8317;SDS011;4196;48.926;8.964;2023-02-28T12:09:10;9.83;;;5.17;;
8317;SDS011;4196;48.926;8.964;2023-02-28T12:21:48;9.07;;;4.97;;
8317;SDS011;4196;48.926;8.964;2023-02-28T12:24:57;8.47;;;5.13;;
8317;SDS011;4196;48.926;8.964;2023-02-28T12:27:46;6.07;;;4.57;;
8317;SDS011;4196;48.926;8.964;2023-02-28T12:30:35;8.67;;;4.70;;
8317;SDS011;4196;48.926;8.964;2023-02-28T12:33:28;8.87;;;5.27;;
8317;SDS011;4196;48.926;8.964;2023-02-28T12:36:20;9.60;;;5.00;;
8317;SDS011;4196;48.926;8.964;2023-02-28T12:39:19;7.13;;;4.57;;
8317;SDS011;4196;48.926;8.964;2023-02-28T12:42:12;6.90;;;4.67;;
8317;SDS011;4196;48.926;8.964;2023-02-28T12:45:13;8.30;;;5.23;;
8317;SDS011;4196;48.926;8.964;2023-02-28T12:48:06;7.40;;;4.80;;
8317;SDS011;4196;48.926;8.964;2023-02-28T12:50:57;6.33;;;4.60;;
8317;SDS011;4196;48.926;8.964;2023-02-28T12:53:50;8.63;;;5.27;;
8317;SDS011;4196;48.926;8.964;2023-02-28T12:59:54;7.97;;;4.57;;
8317;SDS011;4196;48.926;8.964;2023-02-28T13:02:50;7.37;;;4.77;;
8317;SDS011;4196;48.926;8.964;2023-02-28T13:11:51;8.10;;;4.73;;
8317;SDS011;4196;48.926;8.964;2023-02-28T13:14:39;15.70;;;4.90;;
8317;SDS011;4196;48.926;8.964;2023-02-28T13:17:26;8.67;;;5.20;;
8317;SDS011;4196;48.926;8.964;2023-02-28T13:20:20;7.33;;;5.43;;
8317;SDS011;4196;48.926;8.964;2023-02-28T13:23:35;8.83;;;4.17;;
8317;SDS011;4196;48.926;8.964;2023-02-28T13:37:42;8.50;;;4.93;;
8317;SDS011;4196;48.926;8.964;2023-02-28T13:40:31;8.23;;;5.00;;
8317;SDS011;4196;48.926;8.964;2023-02-28T13:43:24;8.07;;;4.80;;
8317;SDS011;4196;48.926;8.964;2023-02-28T13:49:34;9.77;;;5.83;;
8317;SDS011;4196;48.926;8.964;2023-02-28T13:52:22;7.23;;;5.20;;
8317;SDS011;4196;48.926;8.964;2023-02-28T13:55:19;8.23;;;5.07;;
8317;SDS011;4196;48.926;8.964;2023-02-28T14:08:15;7.50;;;4.67;;
8317;SDS011;4196;48.926;8.964;2023-02-28T14:11:08;7.20;;;4.77;;
8317;SDS011;4196;48.926;8.964;2023-02-28T14:14:52;8.63;;;4.80;;
8317;SDS011;4196;48.926;8.964;2023-02-28T14:17:23;9.93;;;5.43;;
8317;SDS011;4196;48.926;8.964;2023-02-28T14:20:15;10.23;;;5.57;;
8317;SDS011;4196;48.926;8.964;2023-02-28T14:38:31;11.87;;;6.03;;
8317;SDS011;4196;48.926;8.964;2023-02-28T14:41:32;11.93;;;5.17;;
8317;SDS011;4196;48.926;8.964;2023-02-28T14:44:26;9.47;;;6.03;;
8317;SDS011;4196;48.926;8.964;2023-02-28T14:47:14;56.90;;;8.33;;
8317;SDS011;4196;48.926;8.964;2023-02-28T14:50:02;13.17;;;6.03;;
8317;SDS011;4196;48.926;8.964;2023-02-28T14:52:53;8.53;;;5.57;;
8317;SDS011;4196;48.926;8.964;2023-02-28T14:55:47;10.97;;;5.60;;
8317;SDS011;4196;48.926;8.964;2023-02-28T14:58:34;9.20;;;5.33;;
8317;SDS011;4196;48.926;8.964;2023-02-28T15:01:21;9.30;;;5.83;;
8317;SDS011;4196;48.926;8.964;2023-02-28T15:04:12;8.77;;;5.10;;
8317;SDS011;4196;48.926;8.964;2023-02-28T15:07:09;10.60;;;5.47;;
8317;SDS011;4196;48.926;8.964;2023-02-28T15:13:14;12.40;;;6.20;;
8317;SDS011;4196;48.926;8.964;2023-02-28T15:16:01;7.83;;;4.73;;
8317;SDS011;4196;48.926;8.964;2023-02-28T15:18:54;6.30;;;5.00;;
8317;SDS011;4196;48.926;8.964;2023-02-28T15:21:47;10.60;;;6.30;;
8317;SDS011;4196;48.926;8.964;2023-02-28T15:24:37;10.23;;;5.73;;
8317;SDS011;4196;48.926;8.964;2023-02-28T15:27:28;9.87;;;4.90;;
8317;SDS011;4196;48.926;8.964;2023-02-28T15:34:51;11.00;;;5.67;;
8317;SDS011;4196;48.926;8.964;2023-02-28T15:37:39;10.67;;;5.90;;
8317;SDS011;4196;48.926;8.964;2023-02-28T15:40:50;9.23;;;5.97;;
8317;SDS011;4196;48.926;8.964;2023-02-28T15:43:41;8.33;;;5.53;;
8317;SDS011;4196;48.926;8.964;2023-02-28T15:46:27;10.47;;;6.37;;
8317;SDS011;4196;48.926;8.964;2023-02-28T15:49:17;9.13;;;5.23;;
8317;SDS011;4196;48.926;8.964;2023-02-28T15:52:09;8.90;;;5.77;;
8317;SDS011;4196;48.926;8.964;2023-02-28T15:55:10;10.60;;;6.33;;
8317;SDS011;4196;48.926;8.964;2023-02-28T15:58:04;9.47;;;5.27;;
8317;SDS011;4196;48.926;8.964;2023-02-28T16:01:01;9.60;;;5.57;;
8317;SDS011;4196;48.926;8.964;2023-02-28T16:04:05;8.67;;;5.17;;
8317;SDS011;4196;48.926;8.964;2023-02-28T16:09:45;8.20;;;5.70;;
8317;SDS011;4196;48.926;8.964;2023-02-28T16:12:34;51.47;;;20.90;;
8317;SDS011;4196;48.926;8.964;2023-02-28T16:15:26;10.43;;;5.93;;
8317;SDS011;4196;48.926;8.964;2023-02-28T16:18:14;8.20;;;5.30;;
8317;SDS011;4196;48.926;8.964;2023-02-28T16:21:01;11.10;;;6.13;;
8317;SDS011;4196;48.926;8.964;2023-02-28T16:23:47;10.63;;;6.67;;
8317;SDS011;4196;48.926;8.964;2023-02-28T16:26:33;8.83;;;5.60;;
8317;SDS011;4196;48.926;8.964;2023-02-28T16:29:24;9.30;;;5.50;;
8317;SDS011;4196;48.926;8.964;2023-02-28T16:32:18;8.97;;;5.37;;
8317;SDS011;4196;48.926;8.964;2023-02-28T16:35:05;11.77;;;6.60;;
8317;SDS011;4196;48.926;8.964;2023-02-28T16:37:55;10.40;;;5.77;;
8317;SDS011;4196;48.926;8.964;2023-02-28T16:40:42;11.43;;;6.33;;
8317;SDS011;4196;48.926;8.964;2023-02-28T16:43:28;9.57;;;5.13;;
8317;SDS011;4196;48.926;8.964;2023-02-28T16:46:15;8.27;;;5.67;;
8317;SDS011;4196;48.926;8.964;2023-02-28T16:49:02;11.97;;;5.20;;
8317;SDS011;4196;48.926;8.964;2023-02-28T16:51:49;11.00;;;6.10;;
8317;SDS011;4196;48.926;8.964;2023-02-28T16:54:35;11.13;;;5.67;;
8317;SDS011;4196;48.926;8.964;2023-02-28T16:57:22;10.37;;;6.17;;
8317;SDS011;4196;48.926;8.964;2023-02-28T17:00:11;9.90;;;5.30;;
8317;SDS011;4196;48.926;8.964;2023-02-28T17:02:59;8.90;;;5.00;;
8317;SDS011;4196;48.926;8.964;2023-02-28T17:05:45;10.87;;;6.03;;
8317;SDS011;4196;48.926;8.964;2023-02-28T17:08:32;11.83;;;6.37;;
8317;SDS011;4196;48.926;8.964;2023-02-28T17:11:18;13.30;;;6.27;;
8317;SDS011;4196;48.926;8.964;2023-02-28T17:14:05;9.50;;;5.97;;
8317;SDS011;4196;48.926;8.964;2023-02-28T17:16:52;8.63;;;5.00;;
8317;SDS011;4196;48.926;8.964;2023-02-28T17:19:38;10.70;;;6.07;;
8317;SDS011;4196;48.926;8.964;2023-02-28T17:22:28;13.97;;;6.50;;
8317;SDS011;4196;48.926;8.964;2023-02-28T17:25:15;12.93;;;5.97;;
8317;SDS011;4196;48.926;8.964;2023-02-28T17:28:02;13.57;;;5.60;;
8317;SDS011;4196;48.926;8.964;2023-02-28T17:30:48;12.37;;;5.97;;
8317;SDS011;4196;48.926;8.964;2023-02-28T17:33:35;11.23;;;6.07;;
8317;SDS011;4196;48.926;8.964;2023-02-28T17:36:23;10.23;;;5.83;;
8317;SDS011;4196;48.926;8.964;2023-02-28T17:39:12;12.53;;;6.30;;
8317;SDS011;4196;48.926;8.964;2023-02-28T17:42:05;10.97;;;5.90;;
8317;SDS011;4196;48.926;8.964;2023-02-28T17:44:52;9.43;;;5.03;;
8317;SDS011;4196;48.926;8.964;2023-02-28T17:47:38;11.07;;;5.93;;
8317;SDS011;4196;48.926;8.964;2023-02-28T17:50:25;17.53;;;6.43;;
8317;SDS011;4196;48.926;8.964;2023-02-28T17:53:11;12.13;;;6.50;;
8317;SDS011;4196;48.926;8.964;2023-02-28T17:55:57;13.47;;;6.53;;
8317;SDS011;4196;48.926;8.964;2023-02-28T17:58:44;12.23;;;5.47;;
8317;SDS011;4196;48.926;8.964;2023-02-28T18:01:30;12.07;;;6.27;;
8317;SDS011;4196;48.926;8.964;2023-02-28T18:04:16;10.47;;;6.13;;
8317;SDS011;4196;48.926;8.964;2023-02-28T18:07:03;14.63;;;7.07;;
8317;SDS011;4196;48.926;8.964;2023-02-28T18:09:49;16.90;;;7.33;;
8317;SDS011;4196;48.926;8.964;2023-02-28T18:12:35;19.03;;;7.77;;
8317;SDS011;4196;48.926;8.964;2023-02-28T18:15:22;14.63;;;6.83;;
8317;SDS011;4196;48.926;8.964;2023-02-28T18:18:09;14.27;;;6.27;;
8317;SDS011;4196;48.926;8.964;2023-02-28T18:20:55;10.63;;;6.30;;
8317;SDS011;4196;48.926;8.964;2023-02-28T18:23:41;12.07;;;6.10;;
8317;SDS011;4196;48.926;8.964;2023-02-28T18:26:37;15.57;;;7.10;;
8317;SDS011;4196;48.926;8.964;2023-02-28T18:29:26;10.57;;;5.70;;
8317;SDS011;4196;48.926;8.964;2023-02-28T18:32:13;13.63;;;6.00;;
8317;SDS011;4196;48.926;8.964;2023-02-28T18:35:00;11.83;;;6.83;;
8317;SDS011;4196;48.926;8.964;2023-02-28T18:37:46;11.50;;;6.90;;
8317;SDS011;4196;48.926;8.964;2023-02-28T18:40:32;12.37;;;5.93;;
8317;SDS011;4196;48.926;8.964;2023-02-28T18:43:19;11.23;;;6.63;;
8317;SDS011;4196;48.926;8.964;2023-02-28T18:46:10;12.20;;;6.27;;
8317;SDS011;4196;48.926;8.964;2023-02-28T18:48:59;12.63;;;6.70;;
8317;SDS011;4196;48.926;8.964;2023-02-28T18:51:46;14.77;;;6.33;;
8317;SDS011;4196;48.926;8.964;2023-02-28T18:54:34;13.27;;;6.40;;
8317;SDS011;4196;48.926;8.964;2023-02-28T18:57:20;16.27;;;7.53;;
8317;SDS011;4196;48.926;8.964;2023-02-28T19:04:39;12.33;;;6.33;;
8317;SDS011;4196;48.926;8.964;2023-02-28T19:07:26;16.67;;;6.93;;
8317;SDS011;4196;48.926;8.964;2023-02-28T19:10:13;11.70;;;6.03;;
8317;SDS011;4196;48.926;8.964;2023-02-28T19:13:00;13.77;;;6.17;;
8317;SDS011;4196;48.926;8.964;2023-02-28T19:15:46;12.43;;;6.37;;
8317;SDS011;4196;48.926;8.964;2023-02-28T19:18:34;13.37;;;7.23;;
8317;SDS011;4196;48.926;8.964;2023-02-28T19:21:21;11.73;;;6.30;;
8317;SDS011;4196;48.926;8.964;2023-02-28T19:24:09;12.77;;;7.70;;
8317;SDS011;4196;48.926;8.964;2023-02-28T19:26:55;13.97;;;6.90;;
8317;SDS011;4196;48.926;8.964;2023-02-28T19:29:42;12.67;;;6.83;;
8317;SDS011;4196;48.926;8.964;2023-02-28T19:32:28;12.50;;;6.07;;
8317;SDS011;4196;48.926;8.964;2023-02-28T19:35:15;13.77;;;7.03;;
8317;SDS011;4196;48.926;8.964;2023-02-28T19:38:02;11.77;;;6.53;;
8317;SDS011;4196;48.926;8.964;2023-02-28T19:40:49;14.37;;;6.83;;
8317;SDS011;4196;48.926;8.964;2023-02-28T19:43:35;13.70;;;6.90;;
8317;SDS011;4196;48.926;8.964;2023-02-28T19:46:22;12.03;;;6.67;;